L. J. Sullivan — WDD4355 — position and weather

sailwx.info

Track history (hours):
 
Tides and Currents Weather Stations Pressure Air Temp Water Temp Dewpoint Dewpoint Depression Visibility Wind Speed Wind Dir Waves Ship Positions

L. J. Sullivan

Owner: American Commercial Lines LLC, Jeffersonville, IN. More information available from US FCC via Universal Licensing System and Coast Guard Vessel Documentation Center.

Last reported at 2017-Sep-27 00:18 UTC. Time now 2017-Nov-19 08:45 UTC.
Position N 38°52' W 090°33'.
Warning: this ship's position is 53 days out of date.

Length 46 m; draft 3 m.

Type: Towing. MMSI: 367143670.

Date/timePositionNaut miles runAvg speedWind from/ knotsBaromVisibWave heightAir tempDewpointWater temp
2017-Sep-27 00:18N 38°52' W 090°33'1 3.1
2017-Sep-27 00:01N 38°53' W 090°32'2 3.2
2017-Sep-26 23:30N 38°54' W 090°31'2 4.5
2017-Sep-26 23:00N 38°56' W 090°29'2 4.1
2017-Sep-26 22:31N 38°57' W 090°27'2 3.5
2017-Sep-26 22:01N 38°58' W 090°25'1 1.1
2017-Sep-26 21:31N 38°58' W 090°25'2 4.1
2017-Sep-26 21:00N 38°57' W 090°22'2 4.2
2017-Sep-26 20:31N 38°56' W 090°20'2 4.1
2017-Sep-26 20:00N 38°55' W 090°17'2 4.3
2017-Sep-26 19:26N 38°55' W 090°14'2 4.2
2017-Sep-26 18:57N 38°54' W 090°12'0 0.0
2017-Sep-25 11:47N 38°54' W 090°12'4 0.9
2017-Sep-25 07:23N 38°55' W 090°17'2 5.3
2017-Sep-25 07:00N 38°56' W 090°19'3 5.5
2017-Sep-25 06:30N 38°57' W 090°22'3 5.5
2017-Sep-25 06:00N 38°58' W 090°25'2 5.0
2017-Sep-25 05:31N 38°58' W 090°29'2 4.1
2017-Sep-25 05:00N 38°57' W 090°31'  
Track history (hours):
 
Tides and Currents Weather Stations Pressure Air Temp Water Temp Dewpoint Dewpoint Depression Visibility Wind Speed Wind Dir Waves Ship Positions

L. J. Sullivan

Owner: American Commercial Lines LLC, Jeffersonville, IN. More information available from US FCC via Universal Licensing System and Coast Guard Vessel Documentation Center.

Last reported at 2017-Sep-27 00:18 UTC. Time now 2017-Nov-19 08:45 UTC.
Position N 38°52' W 090°33'.
Warning: this ship's position is 53 days out of date.

Length 46 m; draft 3 m.

Type: Towing. MMSI: 367143670.

Date/timePositionNaut miles runAvg speedWind from/ knotsBaromVisibWave heightAir tempDewpointWater temp
2017-Sep-27 00:18N 38°52' W 090°33'1 3.1
2017-Sep-27 00:01N 38°53' W 090°32'2 3.2
2017-Sep-26 23:30N 38°54' W 090°31'2 4.5
2017-Sep-26 23:00N 38°56' W 090°29'2 4.1
2017-Sep-26 22:31N 38°57' W 090°27'2 3.5
2017-Sep-26 22:01N 38°58' W 090°25'1 1.1
2017-Sep-26 21:31N 38°58' W 090°25'2 4.1
2017-Sep-26 21:00N 38°57' W 090°22'2 4.2
2017-Sep-26 20:31N 38°56' W 090°20'2 4.1
2017-Sep-26 20:00N 38°55' W 090°17'2 4.3
2017-Sep-26 19:26N 38°55' W 090°14'2 4.2
2017-Sep-26 18:57N 38°54' W 090°12'0 0.0
2017-Sep-25 11:47N 38°54' W 090°12'4 0.9
2017-Sep-25 07:23N 38°55' W 090°17'2 5.3
2017-Sep-25 07:00N 38°56' W 090°19'3 5.5
2017-Sep-25 06:30N 38°57' W 090°22'3 5.5
2017-Sep-25 06:00N 38°58' W 090°25'2 5.0
2017-Sep-25 05:31N 38°58' W 090°29'2 4.1
2017-Sep-25 05:00N 38°57' W 090°31'  

Dump ship's entire track history